createdAt,value
2016-12-03T00:00:16.786Z,21.13
2016-12-03T00:01:17.120Z,21.14
2016-12-03T00:02:16.853Z,21.16
2016-12-03T00:03:17.160Z,21.13
2016-12-03T00:04:16.884Z,21.12
2016-12-03T00:05:16.918Z,21.1
2016-12-03T00:06:17.262Z,21.1
2016-12-03T00:07:17.286Z,21.14
2016-12-03T00:08:16.999Z,21.1
2016-12-03T00:09:16.732Z,21.06
2016-12-03T00:10:17.056Z,21.12
2016-12-03T00:11:17.077Z,21.1
2016-12-03T00:12:17.414Z,21.1
2016-12-03T00:13:17.134Z,21.03
2016-12-03T00:14:16.871Z,21.04
2016-12-03T00:15:16.891Z,21.06
2016-12-03T00:16:17.214Z,20.99
2016-12-03T00:17:16.945Z,21.04
2016-12-03T00:18:17.281Z,21.09
2016-12-03T00:19:17.302Z,20.99
2016-12-03T00:20:17.635Z,20.99
2016-12-03T00:21:17.356Z,20.95
2016-12-03T00:22:17.080Z,21.13
2016-12-03T00:23:17.418Z,21.03
2016-12-03T00:24:17.453Z,21.09
2016-12-03T00:25:17.470Z,20.97
2016-12-03T00:26:17.499Z,20.94
2016-12-03T00:27:17.856Z,20.97
2016-12-03T00:28:17.257Z,20.94
2016-12-03T00:29:17.577Z,20.99
2016-12-03T00:30:17.306Z,20.99
2016-12-03T00:31:17.630Z,20.91
2016-12-03T00:32:17.359Z,20.95
2016-12-03T00:33:17.387Z,20.87
2016-12-03T00:34:17.417Z,21.03
2016-12-03T00:35:18.057Z,20.89
2016-12-03T00:36:17.770Z,20.97
2016-12-03T00:37:17.801Z,20.91
2016-12-03T00:38:17.831Z,20.89
2016-12-03T00:39:17.848Z,20.92
2016-12-03T00:40:18.185Z,20.89
2016-12-03T00:41:17.905Z,20.89
2016-12-03T00:42:17.633Z,20.82
2016-12-03T00:43:18.258Z,20.89
2016-12-03T00:44:17.986Z,20.88
2016-12-03T00:45:18.324Z,20.87
2016-12-03T00:46:18.056Z,20.89
2016-12-03T00:47:18.385Z,20.77
2016-12-03T00:48:18.415Z,20.94
2016-12-03T00:49:18.435Z,20.84
2016-12-03T00:50:17.855Z,20.85
2016-12-03T00:51:18.488Z,20.73
2016-12-03T00:52:18.521Z,20.85
2016-12-03T00:53:18.582Z,20.79
2016-12-03T00:54:18.270Z,20.79
2016-12-03T00:55:18.291Z,20.79
2016-12-03T00:56:18.628Z,20.79
2016-12-03T00:57:18.353Z,20.77
2016-12-03T00:58:18.690Z,20.76
2016-12-03T00:59:18.702Z,20.77
2016-12-03T01:00:18.431Z,20.7
2016-12-03T01:01:18.459Z,20.7
2016-12-03T01:02:18.794Z,20.7
2016-12-03T01:03:18.522Z,20.73
2016-12-03T01:04:18.865Z,20.61
2016-12-03T01:05:18.566Z,20.74
2016-12-03T01:06:18.907Z,20.59
2016-12-03T01:07:18.932Z,20.64
2016-12-03T01:08:18.644Z,20.67
2016-12-03T01:09:18.987Z,20.64
2016-12-03T01:10:19.017Z,20.69
2016-12-03T01:11:18.745Z,20.64
2016-12-03T01:12:18.772Z,20.66
2016-12-03T01:13:18.804Z,20.58
2016-12-03T01:14:18.828Z,20.61
2016-12-03T01:15:18.553Z,20.57
2016-12-03T01:16:19.175Z,20.61
2016-12-03T01:17:19.202Z,20.64
2016-12-03T01:18:18.944Z,20.62
2016-12-03T01:19:18.956Z,20.58
2016-12-03T01:20:19.293Z,20.58
2016-12-03T01:21:19.007Z,20.62
2016-12-03T01:22:19.046Z,20.58
2016-12-03T01:23:19.374Z,20.61
2016-12-03T01:24:19.083Z,20.55
2016-12-03T01:25:19.128Z,20.59
2016-12-03T01:26:19.461Z,20.54
2016-12-03T01:27:19.486Z,20.57
2016-12-03T01:28:19.511Z,20.47
2016-12-03T01:29:19.223Z,20.58
2016-12-03T01:30:19.259Z,20.47
2016-12-03T01:31:18.984Z,20.57
2016-12-03T01:32:19.313Z,20.52
2016-12-03T01:33:19.338Z,20.5
2016-12-03T01:34:19.380Z,20.42
2016-12-03T01:35:19.695Z,20.52
2016-12-03T01:36:19.117Z,20.54
2016-12-03T01:37:19.753Z,20.5
2016-12-03T01:38:19.478Z,20.5
2016-12-03T01:39:19.850Z,20.41
2016-12-03T01:40:19.538Z,20.48
2016-12-03T01:41:19.864Z,20.39
2016-12-03T01:42:19.893Z,20.47
2016-12-03T01:43:19.617Z,20.39
2016-12-03T01:44:19.942Z,20.43
2016-12-03T01:45:19.667Z,20.38
2016-12-03T01:46:19.699Z,20.41
2016-12-03T01:47:20.032Z,20.38
2016-12-03T01:48:20.056Z,20.36
2016-12-03T01:49:20.077Z,20.41
2016-12-03T01:50:19.812Z,20.35
2016-12-03T01:51:19.819Z,20.33
2016-12-03T01:52:20.164Z,20.33
2016-12-03T01:53:20.192Z,20.39
2016-12-03T01:54:20.221Z,20.35
2016-12-03T01:55:19.938Z,20.36
2016-12-03T01:56:19.975Z,20.32
2016-12-03T01:57:20.003Z,20.33
2016-12-03T01:58:20.320Z,20.28
2016-12-03T01:59:19.745Z,20.32
2016-12-03T02:00:20.077Z,20.33
2016-12-03T02:01:20.094Z,20.36
2016-12-03T02:02:20.435Z,20.24
2016-12-03T02:03:20.464Z,20.33
2016-12-03T02:04:20.232Z,20.33
2016-12-03T02:05:20.513Z,20.29
2016-12-03T02:06:20.537Z,20.29
2016-12-03T02:07:20.259Z,20.28
2016-12-03T02:08:20.599Z,20.28
2016-12-03T02:09:20.320Z,20.29
2016-12-03T02:10:20.654Z,20.21
2016-12-03T02:11:20.373Z,20.23
2016-12-03T02:12:20.702Z,20.18
2016-12-03T02:13:20.451Z,20.13
2016-12-03T02:14:20.459Z,20.16
2016-12-03T02:15:20.789Z,20.14
2016-12-03T02:16:20.821Z,20.14
2016-12-03T02:17:20.533Z,20.13
2016-12-03T02:18:20.862Z,20.16
2016-12-03T02:19:20.927Z,20.17
2016-12-03T02:20:20.612Z,20.18
2016-12-03T02:21:20.649Z,20.16
2016-12-03T02:22:20.681Z,20.21
2016-12-03T02:23:20.402Z,20.14
2016-12-03T02:24:21.027Z,20.17
2016-12-03T02:25:21.059Z,20.21
2016-12-03T02:26:21.084Z,20.18
2016-12-03T02:27:21.112Z,20.14
2016-12-03T02:28:21.146Z,20.16
2016-12-03T02:29:22.262Z,20.14
2016-12-03T02:30:21.195Z,20.2
2016-12-03T02:31:20.920Z,20.05
2016-12-03T02:32:20.940Z,20.13
2016-12-03T02:33:21.277Z,20.17
2016-12-03T02:34:21.302Z,20.13
2016-12-03T02:35:21.024Z,20.01
2016-12-03T02:36:21.058Z,20.16
2016-12-03T02:37:21.083Z,20.08
2016-12-03T02:38:21.413Z,20.02
2016-12-03T02:39:21.138Z,20.06
2016-12-03T02:40:21.454Z,20.02
2016-12-03T02:41:21.186Z,20.05
2016-12-03T02:42:21.519Z,20.06
2016-12-03T02:43:21.236Z,20.1
2016-12-03T02:44:21.573Z,20.06
2016-12-03T02:45:21.302Z,20.08
2016-12-03T02:46:21.326Z,20.06
2016-12-03T02:47:21.659Z,20.02
2016-12-03T02:48:21.381Z,20.1
2016-12-03T02:49:21.101Z,20.1
2016-12-03T02:50:21.425Z,20.02
2016-12-03T02:51:21.768Z,19.98
2016-12-03T02:52:21.782Z,19.92
2016-12-03T02:53:21.211Z,19.94
2016-12-03T02:54:21.544Z,20.02
2016-12-03T02:55:21.260Z,19.99
2016-12-03T02:56:21.899Z,20.02
2016-12-03T02:57:21.934Z,19.96
2016-12-03T02:58:21.948Z,19.98
2016-12-03T02:59:21.675Z,19.95
2016-12-03T03:00:22.004Z,19.94
2016-12-03T03:01:21.725Z,19.98
2016-12-03T03:02:21.751Z,19.94
2016-12-03T03:03:21.789Z,19.99
2016-12-03T03:04:22.110Z,19.95
2016-12-03T03:05:21.841Z,19.98
2016-12-03T03:06:21.864Z,19.99
2016-12-03T03:07:22.190Z,19.92
2016-12-03T03:08:21.914Z,19.96
2016-12-03T03:09:21.950Z,19.96
2016-12-03T03:10:22.272Z,19.92
2016-12-03T03:11:22.000Z,19.91
2016-12-03T03:12:22.337Z,19.95
2016-12-03T03:13:21.750Z,19.94
2016-12-03T03:14:22.370Z,19.98
2016-12-03T03:15:21.799Z,19.94
2016-12-03T03:16:21.831Z,19.98
2016-12-03T03:17:22.454Z,19.96
2016-12-03T03:18:21.885Z,19.94
2016-12-03T03:19:22.214Z,19.92
2016-12-03T03:20:22.238Z,19.87
2016-12-03T03:21:22.571Z,19.81
2016-12-03T03:22:22.289Z,19.88
2016-12-03T03:23:22.628Z,20.01
2016-12-03T03:24:22.341Z,19.92
2016-12-03T03:25:22.070Z,19.88
2016-12-03T03:26:22.099Z,19.95
2016-12-03T03:27:22.131Z,19.87
2016-12-03T03:28:22.454Z,19.88
2016-12-03T03:29:22.487Z,19.96
2016-12-03T03:30:22.505Z,19.87
2016-12-03T03:31:22.538Z,19.88
2016-12-03T03:32:22.859Z,19.84
2016-12-03T03:33:22.908Z,19.86
2016-12-03T03:34:22.910Z,19.84
2016-12-03T03:35:22.640Z,19.87
2016-12-03T03:36:22.662Z,19.84
2016-12-03T03:37:22.390Z,19.84
2016-12-03T03:38:23.035Z,19.84
2016-12-03T03:39:23.063Z,19.86
2016-12-03T03:40:22.769Z,19.81
2016-12-03T03:41:22.805Z,19.8
2016-12-03T03:42:22.834Z,19.83
2016-12-03T03:43:22.858Z,19.76
2016-12-03T03:44:23.183Z,19.77
2016-12-03T03:45:22.606Z,19.87
2016-12-03T03:46:22.637Z,19.84
2016-12-03T03:47:23.261Z,19.81
2016-12-03T03:48:22.986Z,19.84
2016-12-03T03:49:23.318Z,19.84
2016-12-03T03:50:23.343Z,19.76
2016-12-03T03:51:23.065Z,19.78
2016-12-03T03:52:22.804Z,19.8
2016-12-03T03:53:23.120Z,19.78
2016-12-03T03:54:23.453Z,19.76
2016-12-03T03:55:23.173Z,19.78
2016-12-03T03:56:23.505Z,19.77
2016-12-03T03:57:23.227Z,19.77
2016-12-03T03:58:23.259Z,19.68
2016-12-03T03:59:23.591Z,19.78
2016-12-03T04:00:23.616Z,19.71
2016-12-03T04:01:23.640Z,19.78
2016-12-03T04:02:23.685Z,19.77
2016-12-03T04:03:23.699Z,19.68
2016-12-03T04:04:23.418Z,19.69
2016-12-03T04:05:23.739Z,19.69
2016-12-03T04:06:23.768Z,19.76
2016-12-03T04:07:23.505Z,19.66
2016-12-03T04:08:23.528Z,19.8
2016-12-03T04:09:23.858Z,19.71
2016-12-03T04:10:23.787Z,19.76
2016-12-03T04:11:23.911Z,19.71
2016-12-03T04:12:23.631Z,19.77
2016-12-03T04:13:23.648Z,19.76
2016-12-03T04:14:23.392Z,19.74
2016-12-03T04:15:24.017Z,19.66
2016-12-03T04:16:23.738Z,19.68
2016-12-03T04:17:23.454Z,19.74
2016-12-03T04:18:25.013Z,19.66
2016-12-03T04:19:23.809Z,19.73
2016-12-03T04:20:23.844Z,19.68
2016-12-03T04:21:24.168Z,19.62
2016-12-03T04:22:23.905Z,19.71
2016-12-03T04:23:24.230Z,19.63
2016-12-03T04:24:23.946Z,19.62
2016-12-03T04:25:23.971Z,19.65
2016-12-03T04:26:23.700Z,19.63
2016-12-03T04:27:24.041Z,19.62
2016-12-03T04:28:24.357Z,19.62
2016-12-03T04:29:24.374Z,19.59
2016-12-03T04:30:24.411Z,19.62
2016-12-03T04:31:24.135Z,19.62
2016-12-03T04:32:24.471Z,19.63
2016-12-03T04:33:24.493Z,19.59
2016-12-03T04:34:24.517Z,19.61
2016-12-03T04:35:24.541Z,19.62
2016-12-03T04:36:24.258Z,19.59
2016-12-03T04:37:24.591Z,19.61
2016-12-03T04:38:24.315Z,19.62
2016-12-03T04:39:24.351Z,19.63
2016-12-03T04:40:24.065Z,19.65
2016-12-03T04:41:24.702Z,19.59
2016-12-03T04:42:24.139Z,19.58
2016-12-03T04:43:24.460Z,19.58
2016-12-03T04:44:24.480Z,19.48
2016-12-03T04:45:24.814Z,19.61
2016-12-03T04:46:24.550Z,19.55
2016-12-03T04:47:24.566Z,19.61
2016-12-03T04:48:24.896Z,19.44
2016-12-03T04:49:24.928Z,19.48
2016-12-03T04:50:24.645Z,19.51
2016-12-03T04:51:24.970Z,19.59
2016-12-03T04:52:25.006Z,19.47
2016-12-03T04:53:24.726Z,19.48
2016-12-03T04:54:24.743Z,19.5
2016-12-03T04:55:24.774Z,19.46
2016-12-03T04:56:24.505Z,19.5
2016-12-03T04:57:25.134Z,19.5
2016-12-03T04:58:24.852Z,19.51
2016-12-03T04:59:24.883Z,19.59
2016-12-03T05:00:24.906Z,19.55
2016-12-03T05:01:25.240Z,19.55
2016-12-03T05:02:25.265Z,19.51
2016-12-03T05:03:25.290Z,19.51
2016-12-03T05:04:25.319Z,19.51
2016-12-03T05:05:25.045Z,19.5
2016-12-03T05:06:25.373Z,19.56
2016-12-03T05:07:24.796Z,19.5
2016-12-03T05:08:25.425Z,19.51
2016-12-03T05:09:25.458Z,19.46
2016-12-03T05:10:25.471Z,19.51
2016-12-03T05:11:25.203Z,19.51
2016-12-03T05:12:25.533Z,19.61
2016-12-03T05:13:25.257Z,19.43
2016-12-03T05:14:25.585Z,19.46
2016-12-03T05:15:25.619Z,19.46
2016-12-03T05:16:25.343Z,19.46
2016-12-03T05:17:25.660Z,19.46
2016-12-03T05:18:25.688Z,19.46
2016-12-03T05:19:25.413Z,19.41
2016-12-03T05:20:25.434Z,19.51
2016-12-03T05:21:25.475Z,19.5
2016-12-03T05:22:25.803Z,19.51
2016-12-03T05:23:25.525Z,19.51
2016-12-03T05:24:25.851Z,19.39
2016-12-03T05:25:25.566Z,19.5
2016-12-03T05:26:25.906Z,19.43
2016-12-03T05:27:25.315Z,19.47
2016-12-03T05:28:25.659Z,19.48
2016-12-03T05:29:25.684Z,19.44
2016-12-03T05:30:26.017Z,19.41
2016-12-03T05:31:26.042Z,19.47
2016-12-03T05:32:25.451Z,19.54
2016-12-03T05:33:25.479Z,19.51
2016-12-03T05:34:26.120Z,19.47
2016-12-03T05:35:26.153Z,19.51
2016-12-03T05:36:25.862Z,19.5
2016-12-03T05:37:26.197Z,19.48
2016-12-03T05:38:25.611Z,19.47
2016-12-03T05:39:25.960Z,19.59
2016-12-03T05:40:25.970Z,19.65
2016-12-03T05:41:26.001Z,19.68
2016-12-03T05:42:26.030Z,19.62
2016-12-03T05:43:26.058Z,19.63
2016-12-03T05:44:26.383Z,19.63
2016-12-03T05:45:26.116Z,19.71
2016-12-03T05:46:26.129Z,19.62
2016-12-03T05:47:26.465Z,19.68
2016-12-03T05:48:26.190Z,19.66
2016-12-03T05:49:26.234Z,19.69
2016-12-03T05:50:26.541Z,19.71
2016-12-03T05:51:26.568Z,19.77
2016-12-03T05:52:26.593Z,19.74
2016-12-03T05:53:26.326Z,19.77
2016-12-03T05:54:26.354Z,19.78
2016-12-03T05:55:26.671Z,19.78
2016-12-03T05:56:26.391Z,19.83
2016-12-03T05:57:26.424Z,19.84
2016-12-03T05:58:26.457Z,19.88
2016-12-03T05:59:26.486Z,19.86
2016-12-03T06:00:26.810Z,19.84
2016-12-03T06:01:26.535Z,19.86
2016-12-03T06:02:26.865Z,19.96
2016-12-03T06:03:26.902Z,19.87
2016-12-03T06:04:26.609Z,19.91
2016-12-03T06:05:26.634Z,19.86
2016-12-03T06:06:26.655Z,19.87
2016-12-03T06:07:26.693Z,19.91
2016-12-03T06:08:27.030Z,19.98
2016-12-03T06:09:27.053Z,19.98
2016-12-03T06:10:26.783Z,19.95
2016-12-03T06:11:26.795Z,19.95
2016-12-03T06:12:26.528Z,19.99
2016-12-03T06:13:26.856Z,20.01
2016-12-03T06:14:27.177Z,20.01
2016-12-03T06:15:26.905Z,19.92
2016-12-03T06:16:26.938Z,19.96
2016-12-03T06:17:27.267Z,19.95
2016-12-03T06:18:26.992Z,19.99
2016-12-03T06:19:27.332Z,19.98
2016-12-03T06:20:27.029Z,19.94
2016-12-03T06:21:27.066Z,19.98
2016-12-03T06:22:27.100Z,19.98
2016-12-03T06:23:27.112Z,19.98
2016-12-03T06:24:27.449Z,19.95
2016-12-03T06:25:27.161Z,19.94
2016-12-03T06:26:27.506Z,19.99
2016-12-03T06:27:27.228Z,19.99
2016-12-03T06:28:27.259Z,19.95
2016-12-03T06:29:27.593Z,19.92
2016-12-03T06:30:27.607Z,19.98
2016-12-03T06:31:27.641Z,19.98
2016-12-03T06:32:27.658Z,19.96
2016-12-03T06:33:27.700Z,19.96
2016-12-03T06:34:27.110Z,19.96
2016-12-03T06:35:27.752Z,20.06
2016-12-03T06:36:27.169Z,20.08
2016-12-03T06:37:27.794Z,20.03
2016-12-03T06:38:27.857Z,20.06
2016-12-03T06:39:27.844Z,20.05
2016-12-03T06:40:27.560Z,20.05
2016-12-03T06:41:27.597Z,20.13
2016-12-03T06:42:27.630Z,20.06
2016-12-03T06:43:27.958Z,20.1
2016-12-03T06:44:27.688Z,20.05
2016-12-03T06:45:28.013Z,20.02
2016-12-03T06:46:27.742Z,20.05
2016-12-03T06:47:28.077Z,20.03
2016-12-03T06:48:28.091Z,20.14
2016-12-03T06:49:27.512Z,20.17
2016-12-03T06:50:28.144Z,20.13
2016-12-03T06:51:28.179Z,20.16
2016-12-03T06:52:27.903Z,20.13
2016-12-03T06:53:27.924Z,20.18
2016-12-03T06:54:27.952Z,20.18
2016-12-03T06:55:28.292Z,20.2
2016-12-03T06:56:28.313Z,20.18
2016-12-03T06:57:28.334Z,20.11
2016-12-03T06:58:28.053Z,20.16
2016-12-03T06:59:28.102Z,20.21
2016-12-03T07:00:28.417Z,20.16
2016-12-03T07:01:28.442Z,20.16
2016-12-03T07:02:28.167Z,20.18
2016-12-03T07:03:28.195Z,20.2
2016-12-03T07:04:28.520Z,20.21
2016-12-03T07:05:28.242Z,20.18
2016-12-03T07:06:27.963Z,20.24
2016-12-03T07:07:28.290Z,20.32
2016-12-03T07:08:28.331Z,20.23
2016-12-03T07:09:28.352Z,20.28
2016-12-03T07:10:28.385Z,20.29
2016-12-03T07:11:28.714Z,20.26
2016-12-03T07:12:28.749Z,20.35
2016-12-03T07:13:28.467Z,20.33
2016-12-03T07:14:28.784Z,20.32
2016-12-03T07:15:28.812Z,20.31
2016-12-03T07:16:28.842Z,20.38
2016-12-03T07:17:28.575Z,20.36
2016-12-03T07:18:28.601Z,20.32
2016-12-03T07:19:28.620Z,20.31
2016-12-03T07:20:28.645Z,20.32
2016-12-03T07:21:28.987Z,20.32
2016-12-03T07:22:28.715Z,20.33
2016-12-03T07:23:29.036Z,20.39
2016-12-03T07:24:29.056Z,20.38
2016-12-03T07:25:28.477Z,20.42
2016-12-03T07:26:29.110Z,20.38
2016-12-03T07:27:29.149Z,20.47
2016-12-03T07:28:29.220Z,20.42
2016-12-03T07:29:29.205Z,20.5
2016-12-03T07:30:29.225Z,20.5
2016-12-03T07:31:29.255Z,20.41
2016-12-03T07:32:28.703Z,20.41
2016-12-03T07:33:29.300Z,20.38
2016-12-03T07:34:29.345Z,20.41
2016-12-03T07:35:29.354Z,20.42
2016-12-03T07:36:29.389Z,20.48
2016-12-03T07:37:29.420Z,20.38
2016-12-03T07:38:29.136Z,20.42
2016-12-03T07:39:29.473Z,20.43
2016-12-03T07:40:29.494Z,20.42
2016-12-03T07:41:29.518Z,20.38
2016-12-03T07:42:29.543Z,20.39
2016-12-03T07:43:28.968Z,20.33
2016-12-03T07:44:29.605Z,20.36
2016-12-03T07:45:29.634Z,20.35
2016-12-03T07:46:29.358Z,20.31
2016-12-03T07:47:29.690Z,20.35
2016-12-03T07:48:29.716Z,20.38
2016-12-03T07:49:29.134Z,20.39
2016-12-03T07:50:29.765Z,20.32
2016-12-03T07:51:29.791Z,20.35
2016-12-03T07:52:29.817Z,20.39
2016-12-03T07:53:29.843Z,20.39
2016-12-03T07:54:29.868Z,20.35
2016-12-03T07:55:29.598Z,20.31
2016-12-03T07:56:29.931Z,20.31
2016-12-03T07:57:29.962Z,20.32
2016-12-03T07:58:29.672Z,20.26
2016-12-03T07:59:29.703Z,20.29
2016-12-03T08:00:30.033Z,20.24
2016-12-03T08:01:30.061Z,20.32
2016-12-03T08:02:29.787Z,20.28
2016-12-03T08:03:29.512Z,20.23
2016-12-03T08:04:30.156Z,20.28
2016-12-03T08:05:30.179Z,20.29
2016-12-03T08:06:29.594Z,20.31
2016-12-03T08:07:30.223Z,20.28
2016-12-03T08:08:30.243Z,20.33
2016-12-03T08:09:30.276Z,20.32
2016-12-03T08:10:29.997Z,20.26
2016-12-03T08:11:30.017Z,20.28
2016-12-03T08:12:30.050Z,20.28
2016-12-03T08:13:30.399Z,20.28
2016-12-03T08:14:30.112Z,20.29
2016-12-03T08:15:30.141Z,20.26
2016-12-03T08:16:30.157Z,20.24
2016-12-03T08:17:30.499Z,20.33
2016-12-03T08:18:30.215Z,20.28
2016-12-03T08:19:30.564Z,20.31
2016-12-03T08:20:30.289Z,20.31
2016-12-03T08:21:30.297Z,20.31
2016-12-03T08:22:30.623Z,20.29
2016-12-03T08:23:30.666Z,20.48
2016-12-03T08:24:30.385Z,20.38
2016-12-03T08:25:30.400Z,20.42
2016-12-03T08:26:30.769Z,20.48
2016-12-03T08:27:30.765Z,20.61
2016-12-03T08:28:30.487Z,20.61
2016-12-03T08:29:30.515Z,20.66
2016-12-03T08:30:30.849Z,20.59
2016-12-03T08:31:30.573Z,20.64
2016-12-03T08:32:30.594Z,20.7
2016-12-03T08:33:30.328Z,20.61
2016-12-03T08:34:30.950Z,20.59
2016-12-03T08:35:30.988Z,20.66
2016-12-03T08:36:31.008Z,20.8
2016-12-03T08:37:31.033Z,20.84
2016-12-03T08:38:30.758Z,20.76
2016-12-03T08:39:30.842Z,20.76
2016-12-03T08:40:30.815Z,20.89
2016-12-03T08:41:31.143Z,20.82
2016-12-03T08:42:30.869Z,20.87
2016-12-03T08:43:31.201Z,20.94
2016-12-03T08:44:30.927Z,21.01
2016-12-03T08:45:30.942Z,20.97
2016-12-03T08:46:31.275Z,20.99
2016-12-03T08:47:30.698Z,21.06
2016-12-03T08:48:30.725Z,20.95
2016-12-03T08:49:31.063Z,21.06
2016-12-03T08:50:31.094Z,21.13
2016-12-03T08:51:31.423Z,21.13
2016-12-03T08:52:31.140Z,21.19
2016-12-03T08:53:31.472Z,21.13
2016-12-03T08:54:31.503Z,21.24
2016-12-03T08:55:31.226Z,21.19
2016-12-03T08:56:31.556Z,21.24
2016-12-03T08:57:31.285Z,21.25
2016-12-03T08:58:31.308Z,21.31
2016-12-03T08:59:31.649Z,21.25
2016-12-03T09:00:31.661Z,21.29
2016-12-03T09:01:31.379Z,21.32
2016-12-03T09:02:31.724Z,21.34
2016-12-03T09:03:31.741Z,21.31
2016-12-03T09:04:31.468Z,21.35
2016-12-03T09:05:31.502Z,21.34
2016-12-03T09:06:31.822Z,21.43
2016-12-03T09:07:31.275Z,21.4
2016-12-03T09:08:31.587Z,21.44
2016-12-03T09:09:31.603Z,21.46
2016-12-03T09:10:31.941Z,21.4
2016-12-03T09:11:31.970Z,21.52
2016-12-03T09:12:31.381Z,21.53
2016-12-03T09:13:32.020Z,21.47
2016-12-03T09:14:32.054Z,21.46
2016-12-03T09:15:32.076Z,21.49
2016-12-03T09:16:31.798Z,21.54
2016-12-03T09:17:31.830Z,21.46
2016-12-03T09:18:32.171Z,21.47
2016-12-03T09:19:32.189Z,21.52
2016-12-03T09:20:31.906Z,21.46
2016-12-03T09:21:31.932Z,21.44
2016-12-03T09:22:32.270Z,21.46
2016-12-03T09:23:31.687Z,21.58
2016-12-03T09:24:32.330Z,21.49
2016-12-03T09:25:32.044Z,21.54
2016-12-03T09:26:32.097Z,21.59
2016-12-03T09:27:31.810Z,21.49
2016-12-03T09:28:32.452Z,21.5
2016-12-03T09:29:32.469Z,21.49
2016-12-03T09:30:32.183Z,21.52
2016-12-03T09:31:32.513Z,21.46
2016-12-03T09:32:32.541Z,21.56
2016-12-03T09:33:32.269Z,21.52
2016-12-03T09:34:32.609Z,21.52
2016-12-03T09:35:32.332Z,21.47
2016-12-03T09:36:32.352Z,21.46
2016-12-03T09:37:32.392Z,21.49
2016-12-03T09:38:32.110Z,21.52
2016-12-03T09:39:32.737Z,21.5
2016-12-03T09:40:32.754Z,21.53
2016-12-03T09:41:32.803Z,21.54
2016-12-03T09:42:32.509Z,21.47
2016-12-03T09:43:32.851Z,21.54
2016-12-03T09:44:32.569Z,21.53
2016-12-03T09:45:32.595Z,21.49
2016-12-03T09:46:32.935Z,21.4
2016-12-03T09:47:32.655Z,21.43
2016-12-03T09:48:32.678Z,21.37
2016-12-03T09:49:32.707Z,21.46
2016-12-03T09:50:33.034Z,21.47
2016-12-03T09:51:32.774Z,21.44
2016-12-03T09:52:33.095Z,21.32
2016-12-03T09:53:33.124Z,21.37
2016-12-03T09:54:32.854Z,21.37
2016-12-03T09:55:33.174Z,21.24
2016-12-03T09:56:32.910Z,21.27
2016-12-03T09:57:33.231Z,21.22
2016-12-03T09:58:33.239Z,21.24
2016-12-03T09:59:32.960Z,21.16
2016-12-03T10:00:33.363Z,21.13
2016-12-03T10:01:33.359Z,21.1
2016-12-03T10:02:33.042Z,21.03
2016-12-03T10:03:33.399Z,20.99
2016-12-03T10:04:32.810Z,21.04
2016-12-03T10:05:33.427Z,21.1
2016-12-03T10:06:33.456Z,21.06
2016-12-03T10:07:33.197Z,21.01
2016-12-03T10:08:33.226Z,21.07
2016-12-03T10:09:33.258Z,21.13
2016-12-03T10:10:33.586Z,21.12
2016-12-03T10:11:33.324Z,21.12
2016-12-03T10:12:33.640Z,21.1
2016-12-03T10:13:33.681Z,21.14
2016-12-03T10:14:33.398Z,21.17
2016-12-03T10:15:33.434Z,21.21
2016-12-03T10:16:33.459Z,21.17
2016-12-03T10:17:33.792Z,21.25
2016-12-03T10:18:33.512Z,21.31
2016-12-03T10:19:33.543Z,21.27
2016-12-03T10:20:33.556Z,21.31
2016-12-03T10:21:33.887Z,21.34
2016-12-03T10:22:33.619Z,21.4
2016-12-03T10:23:33.645Z,21.37
2016-12-03T10:24:33.674Z,21.38
2016-12-03T10:25:33.706Z,21.4
2016-12-03T10:26:33.730Z,21.43
2016-12-03T10:27:33.759Z,21.46
2016-12-03T10:28:34.083Z,21.5
2016-12-03T10:29:34.115Z,21.46
2016-12-03T10:30:33.830Z,21.52
2016-12-03T10:31:33.877Z,21.43
2016-12-03T10:32:33.885Z,21.49
2016-12-03T10:33:33.918Z,21.46
2016-12-03T10:34:33.666Z,21.56
2016-12-03T10:35:33.977Z,21.52
2016-12-03T10:36:33.711Z,21.59
2016-12-03T10:37:34.322Z,21.56
2016-12-03T10:38:34.433Z,21.56
2016-12-03T10:39:33.834Z,21.54
2016-12-03T10:40:33.867Z,21.47
2016-12-03T10:41:33.892Z,21.61
2016-12-03T10:42:34.232Z,21.61
2016-12-03T10:43:34.257Z,21.58
2016-12-03T10:44:34.289Z,21.54
2016-12-03T10:45:34.618Z,21.54
2016-12-03T10:46:34.082Z,21.59
2016-12-03T10:47:34.375Z,21.52
2016-12-03T10:48:34.707Z,21.49
2016-12-03T10:49:34.728Z,21.59
2016-12-03T10:50:34.453Z,21.49
2016-12-03T10:51:34.786Z,21.46
2016-12-03T10:52:34.198Z,21.49
2016-12-03T10:53:34.166Z,21.53
2016-12-03T10:54:34.502Z,21.47
2016-12-03T10:55:34.840Z,21.5
2016-12-03T10:56:34.868Z,21.53
2016-12-03T10:57:34.910Z,21.44
2016-12-03T10:58:34.916Z,21.46
2016-12-03T10:59:34.949Z,21.37
2016-12-03T11:00:34.670Z,21.44
2016-12-03T11:01:34.691Z,21.47
2016-12-03T11:02:35.035Z,21.44
2016-12-03T11:03:34.452Z,21.46
2016-12-03T11:04:34.786Z,21.37
2016-12-03T11:05:34.509Z,21.38
2016-12-03T11:06:34.838Z,21.37
2016-12-03T11:07:34.859Z,21.38
2016-12-03T11:08:34.892Z,21.34
2016-12-03T11:09:34.606Z,21.32
2016-12-03T11:10:34.944Z,21.37
2016-12-03T11:11:35.274Z,21.34
2016-12-03T11:12:35.285Z,21.38
2016-12-03T11:13:35.019Z,21.37
2016-12-03T11:14:35.375Z,21.38
2016-12-03T11:15:34.783Z,21.34
2016-12-03T11:16:35.424Z,21.37
2016-12-03T11:17:35.133Z,21.37
2016-12-03T11:18:34.862Z,21.37
2016-12-03T11:19:35.494Z,21.34
2016-12-03T11:20:34.959Z,21.37
2016-12-03T11:21:35.242Z,21.34
2016-12-03T11:22:35.281Z,21.32
2016-12-03T11:23:35.607Z,21.42
2016-12-03T11:24:35.330Z,21.34
2016-12-03T11:25:35.654Z,21.37
2016-12-03T11:26:35.688Z,21.35
2016-12-03T11:27:35.420Z,21.38
2016-12-03T11:28:35.746Z,21.34
2016-12-03T11:29:35.470Z,21.35
2016-12-03T11:30:35.499Z,21.4
2016-12-03T11:31:35.529Z,21.35
2016-12-03T11:32:35.549Z,21.29
2016-12-03T11:33:35.888Z,21.37
2016-12-03T11:34:35.639Z,21.35
2016-12-03T11:35:35.639Z,21.38
2016-12-03T11:36:35.663Z,21.32
2016-12-03T11:37:35.692Z,21.42
2016-12-03T11:38:36.021Z,21.38
2016-12-03T11:39:35.746Z,21.32
2016-12-03T11:40:35.466Z,21.35
2016-12-03T11:41:35.503Z,21.32
2016-12-03T11:42:36.131Z,21.35
2016-12-03T11:43:35.555Z,21.32
2016-12-03T11:44:35.881Z,21.34
2016-12-03T11:45:35.608Z,21.4
2016-12-03T11:46:35.943Z,21.38
2016-12-03T11:47:36.281Z,21.34
2016-12-03T11:48:35.717Z,21.35
2016-12-03T11:49:36.019Z,21.34
2016-12-03T11:50:36.346Z,21.38
2016-12-03T11:51:36.117Z,21.38
2016-12-03T11:52:36.128Z,21.35
2016-12-03T11:53:36.145Z,21.43
2016-12-03T11:54:36.235Z,21.32
2016-12-03T11:55:36.559Z,21.35
2016-12-03T11:56:36.586Z,21.37
2016-12-03T11:57:36.305Z,21.35
2016-12-03T11:58:36.650Z,21.35
2016-12-03T11:59:36.672Z,21.37
2016-12-03T12:00:36.713Z,21.4
2016-12-03T12:01:36.424Z,21.44
2016-12-03T12:02:36.745Z,21.4
2016-12-03T12:03:36.486Z,21.46
2016-12-03T12:04:36.820Z,21.43
2016-12-03T12:05:36.548Z,21.5
2016-12-03T12:06:36.853Z,21.49
2016-12-03T12:07:36.587Z,21.49
2016-12-03T12:08:36.618Z,21.56
2016-12-03T12:09:36.332Z,21.5
2016-12-03T12:10:36.672Z,21.47
2016-12-03T12:11:37.009Z,21.49
2016-12-03T12:12:36.734Z,21.47
2016-12-03T12:13:36.753Z,21.5
2016-12-03T12:14:36.841Z,21.54
2016-12-03T12:15:36.809Z,21.56
2016-12-03T12:16:36.529Z,21.46
2016-12-03T12:17:37.178Z,21.53
2016-12-03T12:18:37.209Z,21.58
2016-12-03T12:19:36.928Z,21.58
2016-12-03T12:20:36.644Z,21.54
2016-12-03T12:21:36.661Z,21.56
2016-12-03T12:22:37.019Z,21.58
2016-12-03T12:23:37.035Z,21.59
2016-12-03T12:24:37.373Z,21.62
2016-12-03T12:25:37.101Z,21.58
2016-12-03T12:26:37.117Z,21.65
2016-12-03T12:27:37.174Z,21.62
2016-12-03T12:28:37.175Z,21.62
2016-12-03T12:29:37.552Z,21.61
2016-12-03T12:30:37.556Z,21.58
2016-12-03T12:31:37.249Z,21.56
2016-12-03T12:32:37.284Z,21.61
2016-12-03T12:33:37.015Z,21.62
2016-12-03T12:34:37.648Z,21.62
2016-12-03T12:35:37.406Z,21.65
2016-12-03T12:36:37.424Z,21.58
2016-12-03T12:37:37.427Z,21.67
2016-12-03T12:38:37.452Z,21.67
2016-12-03T12:39:37.512Z,21.59
2016-12-03T12:40:37.518Z,21.59
2016-12-03T12:41:37.548Z,21.64
2016-12-03T12:42:37.866Z,21.67
2016-12-03T12:43:37.916Z,21.54
2016-12-03T12:44:37.940Z,21.68
2016-12-03T12:45:37.970Z,21.69
2016-12-03T12:46:37.973Z,21.72
2016-12-03T12:47:37.402Z,21.64
2016-12-03T12:48:37.735Z,21.68
2016-12-03T12:49:38.081Z,21.72
2016-12-03T12:50:37.483Z,21.65
2016-12-03T12:51:38.137Z,21.65
2016-12-03T12:52:38.166Z,21.75
2016-12-03T12:53:38.187Z,21.65
2016-12-03T12:54:37.911Z,21.68